Time;durP1;ratioP1;P1;durP2;ratioP2;P2;SDS_P1;SDS_P2;PMS_P1;PMS_P2;Temp;Humidity;BMP_temperature;BMP_pressure;BME280_temperature;BME280_humidity;BME280_pressure;Samples;Min_cycle;Max_cycle;Signal;HPM_P1;HPM_P2
2023/06/08 20:40:49;;;;;;;42.60;40.25;;;15.50;80.00;;;;;;2099810;27;20599;-66
2023/06/08 20:41:51;;;;;;;23.43;22.13;;;14.80;81.20;;;;;;2098629;28;20229;-66
2023/06/08 20:42:52;;;;;;;39.88;37.70;;;14.90;81.60;;;;;;2093855;28;20284;-64
2023/06/08 20:43:56;;;;;;;25.88;24.48;;;15.00;81.00;;;;;;2084626;28;20306;-66
2023/06/08 20:44:57;;;;;;;24.88;23.45;;;15.20;81.00;;;;;;2084775;28;20228;-66
2023/06/08 20:45:58;;;;;;;19.70;18.60;;;15.40;78.80;;;;;;2091882;28;20231;-66
2023/06/08 20:47:01;;;;;;;6.90;6.33;;;15.60;77.60;;;;;;2100475;28;20271;-67
2023/06/08 20:48:03;;;;;;;9.37;8.63;;;15.70;75.80;;;;;;2092460;28;20459;-66
2023/06/08 20:49:04;;;;;;;10.77;9.97;;;15.90;74.90;;;;;;2085289;28;20862;-66
2023/06/08 20:50:06;;;;;;;12.50;11.60;;;16.00;73.30;;;;;;2092907;28;20428;-66
2023/06/08 20:51:06;;;;;;;7.93;7.37;;;16.10;72.70;;;;;;2093594;28;20518;-67
2023/06/08 20:52:08;;;;;;;10.90;10.20;;;16.10;72.00;;;;;;2093032;28;20443;-67
2023/06/08 20:53:09;;;;;;;11.30;10.60;;;16.20;71.80;;;;;;2101248;28;21421;-67
2023/06/08 20:54:09;;;;;;;10.10;9.30;;;16.20;71.40;;;;;;2098985;28;20834;-68
2023/06/08 20:55:10;;;;;;;12.53;11.80;;;16.30;70.60;;;;;;2090454;28;20463;-67
2023/06/08 20:56:11;;;;;;;14.70;13.90;;;16.30;71.30;;;;;;2092543;28;20226;-67
2023/06/08 20:57:12;;;;;;;11.37;10.60;;;16.40;70.20;;;;;;2092659;28;20540;-67
2023/06/08 20:58:15;;;;;;;13.53;12.73;;;16.40;70.10;;;;;;2091447;28;20950;-66
2023/06/08 20:59:15;;;;;;;13.10;12.33;;;16.40;69.20;;;;;;2090862;28;20195;-67
2023/06/08 21:00:16;;;;;;;6.93;6.43;;;16.50;68.90;;;;;;2086083;28;20551;-67
2023/06/08 21:01:17;;;;;;;6.23;5.73;;;16.50;69.40;;;;;;2096232;28;20199;-67
2023/06/08 21:02:18;;;;;;;10.57;9.93;;;16.50;69.00;;;;;;2102309;28;20455;-66
2023/06/08 21:03:20;;;;;;;9.63;8.93;;;16.40;68.30;;;;;;2111224;28;20284;-66
2023/06/08 21:04:27;;;;;;;11.77;11.03;;;16.50;69.40;;;;;;2101817;28;20226;-67
2023/06/08 21:05:31;;;;;;;10.03;9.43;;;16.50;68.60;;;;;;2109337;28;20836;-66
2023/06/08 21:06:31;;;;;;;8.60;7.93;;;16.50;69.10;;;;;;2101506;28;20984;-65
2023/06/08 21:07:35;;;;;;;11.73;11.00;;;16.50;69.50;;;;;;2093411;28;20472;-67
2023/06/08 21:08:35;;;;;;;7.30;6.80;;;16.40;69.50;;;;;;2100899;28;20226;-66
2023/06/08 21:09:36;;;;;;;8.60;8.07;;;16.40;69.20;;;;;;2109515;28;20560;-67
2023/06/08 21:10:37;;;;;;;13.47;12.67;;;16.40;69.10;;;;;;2108736;28;20237;-65
2023/06/08 21:11:37;;;;;;;11.67;10.87;;;16.30;69.00;;;;;;2107332;28;20267;-66
2023/06/08 21:12:39;;;;;;;5.47;4.97;;;16.20;68.80;;;;;;2100591;28;20360;-65
2023/06/08 21:13:40;;;;;;;8.47;7.83;;;16.20;69.00;;;;;;2101814;28;20234;-65
2023/06/08 21:14:41;;;;;;;9.07;8.47;;;16.20;68.90;;;;;;2101244;28;20495;-65
2023/06/08 21:15:42;;;;;;;8.03;7.30;;;16.20;69.30;;;;;;2102225;28;20467;-66
2023/06/08 21:16:45;;;;;;;9.00;8.30;;;16.20;70.70;;;;;;2102451;28;20246;-66
2023/06/08 21:17:47;;;;;;;12.40;11.60;;;16.20;70.70;;;;;;2101908;28;20585;-67
2023/06/08 21:18:48;;;;;;;5.90;4.70;;;16.10;70.90;;;;;;2100872;28;20483;-66
2023/06/08 21:19:48;;;;;;;7.30;6.80;;;16.00;71.00;;;;;;2093973;28;20875;-65
2023/06/08 21:20:49;;;;;;;8.37;7.77;;;15.80;71.50;;;;;;2101762;28;20685;-67
2023/06/08 21:21:51;;;;;;;5.77;5.20;;;15.70;72.00;;;;;;2102109;28;20268;-66
2023/06/08 21:22:52;;;;;;;7.03;6.53;;;15.70;72.60;;;;;;2093225;28;20215;-66
2023/06/08 21:23:52;;;;;;;7.20;6.60;;;15.70;72.70;;;;;;2099479;28;21024;-65
2023/06/08 21:24:53;;;;;;;9.60;8.90;;;15.60;72.90;;;;;;2101773;28;20548;-67
2023/06/08 21:25:54;;;;;;;6.20;5.57;;;15.50;73.80;;;;;;2102322;28;20249;-67
2023/06/08 21:26:55;;;;;;;5.80;5.30;;;15.50;74.50;;;;;;2102171;28;20227;-67
2023/06/08 21:27:56;;;;;;;6.67;6.03;;;15.40;74.00;;;;;;2101870;28;20280;-66
2023/06/08 21:28:57;;;;;;;5.37;4.90;;;15.40;73.50;;;;;;2100445;28;21012;-66
2023/06/08 21:29:58;;;;;;;5.97;5.47;;;15.20;73.60;;;;;;2102044;28;20467;-66
2023/06/08 21:30:59;;;;;;;5.70;5.17;;;15.30;73.30;;;;;;2090659;28;20214;-68
2023/06/08 21:32:00;;;;;;;6.75;6.05;;;15.30;72.90;;;;;;2109938;28;20189;-65
2023/06/08 21:33:01;;;;;;;6.50;6.00;;;15.20;72.70;;;;;;2110217;28;20175;-65
2023/06/08 21:34:03;;;;;;;5.47;5.07;;;15.20;72.70;;;;;;2102166;28;20867;-65
2023/06/08 21:35:06;;;;;;;9.43;8.73;;;15.20;72.70;;;;;;2101932;28;20205;-66
2023/06/08 21:36:11;;;;;;;8.57;6.50;;;15.20;72.90;;;;;;2101057;28;20193;-66
2023/06/08 21:37:14;;;;;;;6.00;5.50;;;15.10;73.20;;;;;;2093965;28;20191;-67
2023/06/08 21:38:15;;;;;;;5.35;4.85;;;15.10;73.30;;;;;;2097415;28;20386;-67
2023/06/08 21:39:16;;;;;;;5.47;5.00;;;15.10;73.10;;;;;;2088348;28;20686;-67
2023/06/08 21:40:16;;;;;;;5.93;5.43;;;15.00;73.00;;;;;;2101074;28;20222;-67
2023/06/08 21:41:17;;;;;;;6.20;5.57;;;15.00;73.30;;;;;;2094949;28;20188;-67
2023/06/08 21:42:19;;;;;;;4.97;4.27;;;15.00;73.70;;;;;;2091849;28;20330;-66
2023/06/08 21:43:20;;;;;;;6.82;4.95;;;15.00;73.80;;;;;;2101614;28;20590;-67
2023/06/08 21:44:21;;;;;;;6.18;4.32;;;15.00;73.80;;;;;;2101228;28;20253;-65
2023/06/08 21:45:21;;;;;;;6.93;6.23;;;15.00;74.00;;;;;;2101499;28;20226;-66
2023/06/08 21:46:22;;;;;;;5.60;4.50;;;14.90;74.40;;;;;;2100541;28;20289;-65
2023/06/08 21:47:23;;;;;;;6.17;4.50;;;14.90;74.30;;;;;;2101016;28;20598;-65
2023/06/08 21:48:24;;;;;;;6.17;5.63;;;14.90;74.30;;;;;;2100600;28;20238;-65
2023/06/08 21:49:25;;;;;;;6.00;4.87;;;14.90;74.30;;;;;;2102380;28;20589;-66
2023/06/08 21:50:25;;;;;;;4.07;3.70;;;14.90;74.30;;;;;;2101408;28;20230;-65
2023/06/08 21:51:26;;;;;;;4.80;4.20;;;14.90;74.40;;;;;;2100877;28;20309;-66
2023/06/08 21:52:27;;;;;;;5.40;5.00;;;14.90;74.40;;;;;;2092855;28;20285;-65
2023/06/08 21:53:28;;;;;;;6.30;4.40;;;14.90;74.40;;;;;;2096661;28;20223;-65
2023/06/08 21:54:28;;;;;;;4.60;4.20;;;14.90;74.40;;;;;;2095996;28;20220;-66
2023/06/08 21:55:29;;;;;;;4.73;4.37;;;14.80;74.30;;;;;;2095947;28;20222;-67
2023/06/08 21:56:30;;;;;;;5.43;4.93;;;14.80;74.40;;;;;;2103438;28;20226;-67
2023/06/08 21:57:30;;;;;;;5.90;5.27;;;14.80;74.50;;;;;;2101766;28;20222;-67
2023/06/08 21:58:31;;;;;;;5.17;4.30;;;14.80;74.40;;;;;;2090248;28;20698;-66
2023/06/08 21:59:32;;;;;;;4.90;4.50;;;14.70;75.10;;;;;;2086928;28;20776;-67
2023/06/08 22:00:33;;;;;;;5.50;5.00;;;14.70;75.00;;;;;;2095544;28;20238;-65
2023/06/08 22:01:34;;;;;;;6.53;6.00;;;14.70;75.10;;;;;;2094969;28;20724;-67
2023/06/08 22:02:36;;;;;;;5.17;4.77;;;14.70;75.10;;;;;;2096404;28;20647;-65
2023/06/08 22:03:37;;;;;;;6.20;4.82;;;14.70;75.30;;;;;;2095102;28;20729;-67
2023/06/08 22:04:38;;;;;;;5.93;5.33;;;14.60;75.90;;;;;;2095265;28;20238;-66
2023/06/08 22:05:39;;;;;;;6.22;5.32;;;14.60;76.00;;;;;;2095325;28;20242;-67
2023/06/08 22:06:40;;;;;;;5.50;5.00;;;14.60;76.10;;;;;;2096596;28;20594;-66
2023/06/08 22:07:40;;;;;;;4.83;4.37;;;14.50;76.10;;;;;;2094691;28;20279;-66
2023/06/08 22:08:42;;;;;;;5.57;4.90;;;14.50;76.20;;;;;;2094698;28;20504;-66
2023/06/08 22:09:43;;;;;;;5.53;4.70;;;14.50;76.70;;;;;;2096084;28;20247;-65
2023/06/08 22:10:45;;;;;;;6.60;4.63;;;14.50;76.70;;;;;;2096266;28;20227;-64
2023/06/08 22:11:48;;;;;;;6.32;5.72;;;14.40;76.80;;;;;;2095008;28;20632;-65
2023/06/08 22:12:54;;;;;;;7.40;5.88;;;14.40;77.40;;;;;;2094328;28;20865;-66
2023/06/08 22:13:56;;;;;;;6.90;5.28;;;14.40;77.70;;;;;;2094663;28;20321;-65
2023/06/08 22:14:58;;;;;;;6.07;5.47;;;14.30;78.10;;;;;;2093568;28;20242;-66
2023/06/08 22:16:02;;;;;;;6.05;5.32;;;14.30;78.60;;;;;;2094386;28;20223;-64
2023/06/08 22:17:04;;;;;;;5.90;5.30;;;14.30;79.00;;;;;;2095191;28;20276;-67
2023/06/08 22:18:06;;;;;;;6.30;5.35;;;14.20;79.30;;;;;;2095815;28;20265;-67
2023/06/08 22:19:07;;;;;;;6.25;5.32;;;14.20;79.20;;;;;;2095734;28;21004;-67
2023/06/08 22:20:11;;;;;;;7.03;5.75;;;14.20;79.50;;;;;;2095752;28;20188;-66
2023/06/08 22:21:13;;;;;;;5.85;5.30;;;14.20;79.50;;;;;;2095959;28;20275;-66
2023/06/08 22:22:17;;;;;;;7.47;6.82;;;14.20;79.40;;;;;;2095675;28;20271;-66
2023/06/08 22:23:17;;;;;;;8.48;7.70;;;14.20;79.60;;;;;;2095884;28;20237;-67
2023/06/08 22:24:18;;;;;;;6.47;5.80;;;14.20;79.30;;;;;;2095478;28;20628;-67
2023/06/08 22:25:20;;;;;;;8.47;7.77;;;14.20;79.20;;;;;;2094951;28;20223;-68
2023/06/08 22:26:21;;;;;;;8.40;7.65;;;14.20;79.30;;;;;;2095734;28;20300;-67
2023/06/08 22:27:22;;;;;;;7.63;6.87;;;14.10;79.30;;;;;;2103521;28;20226;-66
2023/06/08 22:28:24;;;;;;;7.20;6.60;;;14.00;79.90;;;;;;2103611;28;20235;-66
2023/06/08 22:29:25;;;;;;;7.93;7.32;;;14.00;81.10;;;;;;2093238;28;20722;-66
2023/06/08 22:30:26;;;;;;;8.55;7.85;;;13.90;81.80;;;;;;2094771;28;20251;-67
2023/06/08 22:31:28;;;;;;;6.73;6.13;;;13.90;81.80;;;;;;2103503;28;20227;-67
2023/06/08 22:32:28;;;;;;;8.95;8.25;;;13.90;81.70;;;;;;2095043;28;20239;-67
2023/06/08 22:33:29;;;;;;;10.63;9.90;;;13.90;82.00;;;;;;2086311;28;20790;-67
2023/06/08 22:34:30;;;;;;;7.40;6.80;;;13.80;82.30;;;;;;2081470;28;20227;-66
2023/06/08 22:35:31;;;;;;;7.40;6.80;;;13.70;82.30;;;;;;2091500;28;20469;-66
2023/06/08 22:36:32;;;;;;;9.23;6.23;;;13.70;82.70;;;;;;2093043;28;20923;-66
2023/06/08 22:37:33;;;;;;;8.88;8.18;;;13.70;82.90;;;;;;2093374;28;20217;-67
2023/06/08 22:38:34;;;;;;;9.40;8.50;;;13.80;82.60;;;;;;2094376;28;20302;-66
2023/06/08 22:39:35;;;;;;;7.30;6.60;;;13.80;82.30;;;;;;2095443;28;20230;-66
2023/06/08 22:40:35;;;;;;;6.60;6.00;;;13.80;82.60;;;;;;2095053;28;20243;-67
2023/06/08 22:41:36;;;;;;;6.87;6.27;;;13.80;82.40;;;;;;2095271;28;20242;-66
2023/06/08 22:42:38;;;;;;;6.80;6.10;;;13.80;82.50;;;;;;2095781;28;20223;-66
2023/06/08 22:43:41;;;;;;;8.30;7.50;;;13.80;82.60;;;;;;2096442;28;20521;-66
2023/06/08 22:44:41;;;;;;;6.88;6.25;;;13.80;82.30;;;;;;2095599;28;20271;-66
2023/06/08 22:45:42;;;;;;;8.03;7.23;;;13.90;82.10;;;;;;2092936;28;20227;-67
2023/06/08 22:46:43;;;;;;;6.53;5.93;;;13.80;81.60;;;;;;2096090;28;20708;-66
2023/06/08 22:47:43;;;;;;;7.97;7.27;;;13.90;81.70;;;;;;2103458;28;20223;-66
2023/06/08 22:48:44;;;;;;;7.97;7.23;;;13.90;81.80;;;;;;2102427;28;20230;-66
2023/06/08 22:49:48;;;;;;;8.30;7.60;;;13.90;81.70;;;;;;2095824;28;20314;-67
2023/06/08 22:50:49;;;;;;;8.15;7.47;;;13.90;81.70;;;;;;2098725;28;20399;-66
2023/06/08 22:51:50;;;;;;;9.67;8.87;;;13.90;81.80;;;;;;2103688;28;20371;-67
2023/06/08 22:52:55;;;;;;;7.28;6.63;;;13.80;82.20;;;;;;2093679;28;20242;-67
2023/06/08 22:53:56;;;;;;;7.32;6.72;;;13.80;82.50;;;;;;2087510;28;20379;-66
2023/06/08 22:54:57;;;;;;;7.47;6.68;;;13.80;82.30;;;;;;2094591;28;20231;-66
2023/06/08 22:55:58;;;;;;;6.77;6.17;;;13.70;82.60;;;;;;2096223;28;20601;-65
2023/06/08 22:56:59;;;;;;;8.50;7.80;;;13.70;82.80;;;;;;2093845;28;20207;-67
2023/06/08 22:58:01;;;;;;;7.40;6.82;;;13.70;82.70;;;;;;2095140;28;20287;-68
2023/06/08 22:59:02;;;;;;;9.30;8.60;;;13.60;83.10;;;;;;2095649;28;20184;-68
2023/06/08 23:00:10;;;;;;;7.37;6.70;;;13.70;83.10;;;;;;2093934;28;20229;-67
2023/06/08 23:01:11;;;;;;;7.97;7.30;;;13.70;83.20;;;;;;2095256;28;20180;-66
2023/06/08 23:02:14;;;;;;;8.45;7.85;;;13.70;83.00;;;;;;2094298;28;20189;-65
2023/06/08 23:03:16;;;;;;;8.07;6.88;;;13.60;83.20;;;;;;2102973;28;20174;-66
2023/06/08 23:04:19;;;;;;;8.27;7.68;;;13.60;83.30;;;;;;2103838;28;20205;-68
2023/06/08 23:05:20;;;;;;;7.35;6.75;;;13.40;83.50;;;;;;2094831;28;20305;-66
2023/06/08 23:06:22;;;;;;;6.97;6.23;;;13.50;83.90;;;;;;2095333;28;20223;-66
2023/06/08 23:07:25;;;;;;;8.13;7.45;;;13.50;84.10;;;;;;2095744;28;20231;-65
2023/06/08 23:08:27;;;;;;;6.90;6.30;;;13.50;84.00;;;;;;2094701;28;20228;-66
2023/06/08 23:09:28;;;;;;;8.00;7.30;;;13.50;83.90;;;;;;2086891;28;20271;-66
2023/06/08 23:10:29;;;;;;;7.20;6.32;;;13.50;84.00;;;;;;2095064;28;20298;-65
2023/06/08 23:11:32;;;;;;;7.93;7.23;;;13.40;84.10;;;;;;2103387;28;20237;-66
2023/06/08 23:12:33;;;;;;;6.85;6.25;;;13.40;84.50;;;;;;2103467;28;20712;-65
2023/06/08 23:13:37;;;;;;;6.95;6.35;;;13.40;84.70;;;;;;2095883;28;20227;-65
2023/06/08 23:14:39;;;;;;;7.35;6.75;;;13.40;84.90;;;;;;2097872;28;20340;-65
2023/06/08 23:15:41;;;;;;;7.50;6.88;;;13.40;85.30;;;;;;2095162;28;20242;-67
2023/06/08 23:16:42;;;;;;;7.15;6.53;;;13.30;85.70;;;;;;2093952;28;20709;-68
2023/06/08 23:17:43;;;;;;;7.47;6.87;;;13.30;85.50;;;;;;2095162;28;20235;-66
2023/06/08 23:18:44;;;;;;;6.03;5.47;;;13.30;85.50;;;;;;2093709;28;20485;-67
2023/06/08 23:19:48;;;;;;;7.37;6.60;;;13.30;85.50;;;;;;2092442;28;20257;-67
2023/06/08 23:20:52;;;;;;;7.25;6.35;;;13.40;85.10;;;;;;2094796;28;20239;-66
2023/06/08 23:21:53;;;;;;;7.18;6.47;;;13.30;84.80;;;;;;2095950;28;20838;-68
2023/06/08 23:22:55;;;;;;;6.10;5.50;;;13.20;85.20;;;;;;2094313;28;20307;-67
2023/06/08 23:23:57;;;;;;;8.38;5.85;;;13.30;85.40;;;;;;2085580;28;20257;-67
2023/06/08 23:24:58;;;;;;;6.70;5.47;;;13.30;85.80;;;;;;2095150;28;20318;-68
2023/06/08 23:25:59;;;;;;;6.13;5.17;;;13.30;85.80;;;;;;2094382;28;20596;-67
2023/06/08 23:27:00;;;;;;;6.05;5.45;;;13.30;85.80;;;;;;2093791;28;20313;-67
2023/06/08 23:28:01;;;;;;;7.60;5.70;;;13.20;85.80;;;;;;2095086;28;20199;-67
2023/06/08 23:29:01;;;;;;;6.80;5.80;;;13.20;85.90;;;;;;2092298;28;20673;-66
2023/06/08 23:30:02;;;;;;;6.17;5.50;;;13.20;86.00;;;;;;2095316;28;20258;-67
2023/06/08 23:31:04;;;;;;;6.20;5.60;;;13.20;86.30;;;;;;2094426;28;20203;-67
2023/06/08 23:32:06;;;;;;;7.78;6.78;;;13.20;86.30;;;;;;2094037;28;20192;-65
2023/06/08 23:33:08;;;;;;;6.47;5.50;;;13.20;86.30;;;;;;2091222;28;20308;-67
2023/06/08 23:34:09;;;;;;;6.60;6.00;;;13.20;86.40;;;;;;2091418;28;20541;-65
2023/06/08 23:35:10;;;;;;;6.80;6.15;;;13.20;86.10;;;;;;2100308;28;20196;-66
2023/06/08 23:36:12;;;;;;;7.30;6.70;;;13.20;86.30;;;;;;2102906;28;20192;-66
2023/06/08 23:37:15;;;;;;;6.80;6.20;;;13.10;86.00;;;;;;2096432;28;20191;-67
2023/06/08 23:38:16;;;;;;;6.88;6.28;;;13.10;86.50;;;;;;2095350;28;20250;-68
2023/06/08 23:39:17;;;;;;;6.37;5.57;;;13.10;86.50;;;;;;2095592;28;20219;-64
2023/06/08 23:40:17;;;;;;;8.57;5.73;;;13.10;86.70;;;;;;2097279;28;20261;-68
2023/06/08 23:41:18;;;;;;;6.40;5.03;;;13.00;86.80;;;;;;2095932;28;20247;-66
2023/06/08 23:42:23;;;;;;;5.53;5.03;;;12.90;87.30;;;;;;2096084;28;20356;-66
2023/06/08 23:43:24;;;;;;;5.60;4.90;;;13.00;87.30;;;;;;2097641;28;20236;-66
2023/06/08 23:44:25;;;;;;;5.20;4.70;;;13.00;87.60;;;;;;2095971;28;20219;-66
2023/06/08 23:45:26;;;;;;;6.50;5.77;;;13.00;87.60;;;;;;2095699;28;20227;-66
2023/06/08 23:46:26;;;;;;;5.63;5.07;;;13.00;88.00;;;;;;2096363;28;20713;-66
2023/06/08 23:47:28;;;;;;;6.40;5.80;;;12.90;88.20;;;;;;2095891;28;20384;-66
2023/06/08 23:48:29;;;;;;;6.80;5.25;;;12.90;88.50;;;;;;2094239;28;20227;-66
2023/06/08 23:49:29;;;;;;;6.40;5.27;;;12.90;88.50;;;;;;2092993;28;20230;-66
2023/06/08 23:50:30;;;;;;;5.53;4.97;;;12.90;88.60;;;;;;2085877;28;20228;-66
2023/06/08 23:51:31;;;;;;;6.23;5.07;;;12.90;88.60;;;;;;2087672;28;20264;-67
2023/06/08 23:52:31;;;;;;;6.47;5.80;;;12.90;88.30;;;;;;2095965;28;20755;-66
2023/06/08 23:53:32;;;;;;;5.53;4.93;;;12.90;88.80;;;;;;2095940;28;20327;-66
2023/06/08 23:54:33;;;;;;;6.70;5.63;;;12.90;88.70;;;;;;2101284;28;20230;-66
2023/06/08 23:55:34;;;;;;;5.67;5.07;;;12.90;88.60;;;;;;2091685;28;20235;-67
2023/06/08 23:56:34;;;;;;;5.43;4.90;;;12.90;88.70;;;;;;2095363;28;20591;-68
2023/06/08 23:57:35;;;;;;;7.33;5.07;;;12.90;88.90;;;;;;2094201;28;20219;-66
2023/06/08 23:58:36;;;;;;;7.05;6.35;;;12.90;89.30;;;;;;2094990;28;20223;-67
2023/06/08 23:59:37;;;;;;;6.67;5.03;;;12.90;89.60;;;;;;2094416;28;20277;-67
